sensor_id;sensor_type;location;lat;lon;timestamp;temperature;humidity
11778;DHT22;5946;51.770;8.548;2022-08-19T00:00:03;17.00;99.90
11778;DHT22;5946;51.770;8.548;2022-08-19T00:02:29;17.10;99.90
11778;DHT22;5946;51.770;8.548;2022-08-19T00:04:55;17.10;99.90
11778;DHT22;5946;51.770;8.548;2022-08-19T00:07:20;17.10;99.90
11778;DHT22;5946;51.770;8.548;2022-08-19T00:09:46;17.20;99.90
11778;DHT22;5946;51.770;8.548;2022-08-19T00:12:12;17.20;99.90
11778;DHT22;5946;51.770;8.548;2022-08-19T00:14:38;17.20;99.90
11778;DHT22;5946;51.770;8.548;2022-08-19T00:17:05;17.20;99.90
11778;DHT22;5946;51.770;8.548;2022-08-19T00:19:32;17.30;99.90
11778;DHT22;5946;51.770;8.548;2022-08-19T00:21:58;17.30;99.90
11778;DHT22;5946;51.770;8.548;2022-08-19T00:24:24;17.30;99.90
11778;DHT22;5946;51.770;8.548;2022-08-19T00:26:51;17.30;99.90
11778;DHT22;5946;51.770;8.548;2022-08-19T00:29:19;17.30;99.90
11778;DHT22;5946;51.770;8.548;2022-08-19T00:31:45;17.30;99.90
11778;DHT22;5946;51.770;8.548;2022-08-19T00:34:13;17.20;99.90
11778;DHT22;5946;51.770;8.548;2022-08-19T00:36:40;17.20;99.90
11778;DHT22;5946;51.770;8.548;2022-08-19T00:39:06;17.20;99.90
11778;DHT22;5946;51.770;8.548;2022-08-19T00:41:31;17.10;99.90
11778;DHT22;5946;51.770;8.548;2022-08-19T00:44:02;17.00;99.90
11778;DHT22;5946;51.770;8.548;2022-08-19T00:46:28;17.00;99.90
11778;DHT22;5946;51.770;8.548;2022-08-19T00:48:56;17.00;99.90
11778;DHT22;5946;51.770;8.548;2022-08-19T00:51:28;17.00;99.90
11778;DHT22;5946;51.770;8.548;2022-08-19T00:53:57;17.00;99.90
11778;DHT22;5946;51.770;8.548;2022-08-19T00:56:23;16.90;99.90
11778;DHT22;5946;51.770;8.548;2022-08-19T00:58:48;16.90;99.90
11778;DHT22;5946;51.770;8.548;2022-08-19T01:01:14;16.80;99.90
11778;DHT22;5946;51.770;8.548;2022-08-19T01:03:40;16.80;99.90
11778;DHT22;5946;51.770;8.548;2022-08-19T01:06:06;16.80;99.90
11778;DHT22;5946;51.770;8.548;2022-08-19T01:08:32;16.70;99.90
11778;DHT22;5946;51.770;8.548;2022-08-19T01:10:59;16.70;99.90
11778;DHT22;5946;51.770;8.548;2022-08-19T01:13:32;16.70;99.90
11778;DHT22;5946;51.770;8.548;2022-08-19T01:16:04;16.70;99.90
11778;DHT22;5946;51.770;8.548;2022-08-19T01:18:32;16.80;99.90
11778;DHT22;5946;51.770;8.548;2022-08-19T01:21:02;16.80;99.90
11778;DHT22;5946;51.770;8.548;2022-08-19T01:23:31;16.80;99.90
11778;DHT22;5946;51.770;8.548;2022-08-19T01:26:14;16.70;99.90
11778;DHT22;5946;51.770;8.548;2022-08-19T01:28:42;16.70;99.90
11778;DHT22;5946;51.770;8.548;2022-08-19T01:31:16;16.70;99.90
11778;DHT22;5946;51.770;8.548;2022-08-19T01:33:42;16.70;99.90
11778;DHT22;5946;51.770;8.548;2022-08-19T01:36:11;16.70;99.90
11778;DHT22;5946;51.770;8.548;2022-08-19T01:38:39;16.70;99.90
11778;DHT22;5946;51.770;8.548;2022-08-19T01:41:05;16.70;99.90
11778;DHT22;5946;51.770;8.548;2022-08-19T01:43:31;16.70;99.90
11778;DHT22;5946;51.770;8.548;2022-08-19T01:45:57;16.60;99.90
11778;DHT22;5946;51.770;8.548;2022-08-19T01:48:23;16.50;99.90
11778;DHT22;5946;51.770;8.548;2022-08-19T01:50:49;16.50;99.90
11778;DHT22;5946;51.770;8.548;2022-08-19T01:53:15;16.40;99.90
11778;DHT22;5946;51.770;8.548;2022-08-19T01:55:43;16.40;99.90
11778;DHT22;5946;51.770;8.548;2022-08-19T01:58:13;16.30;99.90
11778;DHT22;5946;51.770;8.548;2022-08-19T02:00:40;16.30;99.90
11778;DHT22;5946;51.770;8.548;2022-08-19T02:03:06;16.30;99.90
11778;DHT22;5946;51.770;8.548;2022-08-19T02:05:32;16.20;99.90
11778;DHT22;5946;51.770;8.548;2022-08-19T02:07:57;16.20;99.90
11778;DHT22;5946;51.770;8.548;2022-08-19T02:10:24;16.20;99.90
11778;DHT22;5946;51.770;8.548;2022-08-19T02:12:50;16.10;99.90
11778;DHT22;5946;51.770;8.548;2022-08-19T02:15:17;16.10;99.90
11778;DHT22;5946;51.770;8.548;2022-08-19T02:17:45;16.20;99.90
11778;DHT22;5946;51.770;8.548;2022-08-19T02:20:11;16.20;99.90
11778;DHT22;5946;51.770;8.548;2022-08-19T02:22:37;16.20;99.90
11778;DHT22;5946;51.770;8.548;2022-08-19T02:25:04;16.20;99.90
11778;DHT22;5946;51.770;8.548;2022-08-19T02:27:30;16.20;99.90
11778;DHT22;5946;51.770;8.548;2022-08-19T02:29:56;16.30;99.90
11778;DHT22;5946;51.770;8.548;2022-08-19T02:32:21;16.30;99.90
11778;DHT22;5946;51.770;8.548;2022-08-19T02:34:47;16.20;99.90
11778;DHT22;5946;51.770;8.548;2022-08-19T02:37:13;16.20;99.90
11778;DHT22;5946;51.770;8.548;2022-08-19T02:39:58;16.20;99.90
11778;DHT22;5946;51.770;8.548;2022-08-19T02:42:24;16.20;99.90
11778;DHT22;5946;51.770;8.548;2022-08-19T02:44:49;16.20;99.90
11778;DHT22;5946;51.770;8.548;2022-08-19T02:47:15;16.20;99.90
11778;DHT22;5946;51.770;8.548;2022-08-19T02:49:41;16.20;99.90
11778;DHT22;5946;51.770;8.548;2022-08-19T02:52:06;16.20;99.90
11778;DHT22;5946;51.770;8.548;2022-08-19T02:54:32;16.20;99.90
11778;DHT22;5946;51.770;8.548;2022-08-19T02:56:58;16.20;99.90
11778;DHT22;5946;51.770;8.548;2022-08-19T02:59:23;16.10;99.90
11778;DHT22;5946;51.770;8.548;2022-08-19T03:01:51;16.10;99.90
11778;DHT22;5946;51.770;8.548;2022-08-19T03:04:16;16.00;99.90
11778;DHT22;5946;51.770;8.548;2022-08-19T03:06:44;16.00;99.90
11778;DHT22;5946;51.770;8.548;2022-08-19T03:09:11;15.90;99.90
11778;DHT22;5946;51.770;8.548;2022-08-19T03:11:37;15.90;99.90
11778;DHT22;5946;51.770;8.548;2022-08-19T03:14:04;15.90;99.90
11778;DHT22;5946;51.770;8.548;2022-08-19T03:16:35;15.80;99.90
11778;DHT22;5946;51.770;8.548;2022-08-19T03:19:04;15.80;99.90
11778;DHT22;5946;51.770;8.548;2022-08-19T03:21:32;15.80;99.90
11778;DHT22;5946;51.770;8.548;2022-08-19T03:24:00;15.80;99.90
11778;DHT22;5946;51.770;8.548;2022-08-19T03:26:26;15.80;99.90
11778;DHT22;5946;51.770;8.548;2022-08-19T03:28:51;15.90;99.90
11778;DHT22;5946;51.770;8.548;2022-08-19T03:31:21;15.90;99.90
11778;DHT22;5946;51.770;8.548;2022-08-19T03:33:48;16.00;99.90
11778;DHT22;5946;51.770;8.548;2022-08-19T03:36:20;16.00;99.90
11778;DHT22;5946;51.770;8.548;2022-08-19T03:38:50;16.00;99.90
11778;DHT22;5946;51.770;8.548;2022-08-19T03:41:19;16.00;99.90
11778;DHT22;5946;51.770;8.548;2022-08-19T03:43:45;16.00;99.90
11778;DHT22;5946;51.770;8.548;2022-08-19T03:46:19;16.00;99.90
11778;DHT22;5946;51.770;8.548;2022-08-19T03:48:50;16.00;99.90
11778;DHT22;5946;51.770;8.548;2022-08-19T03:51:21;16.00;99.90
11778;DHT22;5946;51.770;8.548;2022-08-19T03:53:48;16.00;99.90
11778;DHT22;5946;51.770;8.548;2022-08-19T03:56:14;16.00;99.90
11778;DHT22;5946;51.770;8.548;2022-08-19T03:58:41;16.00;99.90
11778;DHT22;5946;51.770;8.548;2022-08-19T04:01:09;16.00;99.90
11778;DHT22;5946;51.770;8.548;2022-08-19T04:03:35;16.00;99.90
11778;DHT22;5946;51.770;8.548;2022-08-19T04:06:18;16.00;99.90
11778;DHT22;5946;51.770;8.548;2022-08-19T04:08:46;16.00;99.90
11778;DHT22;5946;51.770;8.548;2022-08-19T04:11:16;16.10;99.90
11778;DHT22;5946;51.770;8.548;2022-08-19T04:13:42;16.00;99.90
11778;DHT22;5946;51.770;8.548;2022-08-19T04:16:11;16.00;99.90
11778;DHT22;5946;51.770;8.548;2022-08-19T04:18:38;15.90;99.90
11778;DHT22;5946;51.770;8.548;2022-08-19T04:21:05;15.90;99.90
11778;DHT22;5946;51.770;8.548;2022-08-19T04:23:31;15.90;99.90
11778;DHT22;5946;51.770;8.548;2022-08-19T04:25:58;16.00;99.90
11778;DHT22;5946;51.770;8.548;2022-08-19T04:28:24;16.00;99.90
11778;DHT22;5946;51.770;8.548;2022-08-19T04:30:52;16.00;99.90
11778;DHT22;5946;51.770;8.548;2022-08-19T04:33:21;15.90;99.90
11778;DHT22;5946;51.770;8.548;2022-08-19T04:35:49;15.90;99.90
11778;DHT22;5946;51.770;8.548;2022-08-19T04:38:16;15.80;99.90
11778;DHT22;5946;51.770;8.548;2022-08-19T04:40:44;15.80;99.90
11778;DHT22;5946;51.770;8.548;2022-08-19T04:43:29;15.70;99.90
11778;DHT22;5946;51.770;8.548;2022-08-19T04:45:55;15.70;99.90
11778;DHT22;5946;51.770;8.548;2022-08-19T04:48:21;15.70;99.90
11778;DHT22;5946;51.770;8.548;2022-08-19T04:50:52;15.80;99.90
11778;DHT22;5946;51.770;8.548;2022-08-19T04:53:28;15.80;99.90
11778;DHT22;5946;51.770;8.548;2022-08-19T04:55:55;15.80;99.90
11778;DHT22;5946;51.770;8.548;2022-08-19T04:58:22;15.80;99.90
11778;DHT22;5946;51.770;8.548;2022-08-19T05:00:48;15.80;99.90
11778;DHT22;5946;51.770;8.548;2022-08-19T05:03:13;15.90;99.90
11778;DHT22;5946;51.770;8.548;2022-08-19T05:05:43;15.90;99.90
11778;DHT22;5946;51.770;8.548;2022-08-19T05:08:10;16.00;99.90
11778;DHT22;5946;51.770;8.548;2022-08-19T05:10:37;16.00;99.90
11778;DHT22;5946;51.770;8.548;2022-08-19T05:13:03;16.00;99.90
11778;DHT22;5946;51.770;8.548;2022-08-19T05:15:29;16.00;99.90
11778;DHT22;5946;51.770;8.548;2022-08-19T05:17:54;16.10;99.90
11778;DHT22;5946;51.770;8.548;2022-08-19T05:20:39;16.20;99.90
11778;DHT22;5946;51.770;8.548;2022-08-19T05:23:23;16.20;99.90
11778;DHT22;5946;51.770;8.548;2022-08-19T05:25:49;16.20;99.90
11778;DHT22;5946;51.770;8.548;2022-08-19T05:28:15;16.30;99.90
11778;DHT22;5946;51.770;8.548;2022-08-19T05:30:41;16.30;99.90
11778;DHT22;5946;51.770;8.548;2022-08-19T05:33:08;16.30;99.90
11778;DHT22;5946;51.770;8.548;2022-08-19T05:35:36;16.50;99.90
11778;DHT22;5946;51.770;8.548;2022-08-19T05:38:03;16.50;99.90
11778;DHT22;5946;51.770;8.548;2022-08-19T05:40:28;16.60;99.90
11778;DHT22;5946;51.770;8.548;2022-08-19T05:42:54;16.60;99.90
11778;DHT22;5946;51.770;8.548;2022-08-19T05:45:20;16.70;99.90
11778;DHT22;5946;51.770;8.548;2022-08-19T05:47:46;16.70;99.90
11778;DHT22;5946;51.770;8.548;2022-08-19T05:50:12;16.80;99.90
11778;DHT22;5946;51.770;8.548;2022-08-19T05:52:38;16.90;99.90
11778;DHT22;5946;51.770;8.548;2022-08-19T05:55:04;17.00;99.90
11778;DHT22;5946;51.770;8.548;2022-08-19T05:57:30;17.10;99.90
11778;DHT22;5946;51.770;8.548;2022-08-19T05:59:56;17.20;99.90
11778;DHT22;5946;51.770;8.548;2022-08-19T06:02:22;17.30;99.90
11778;DHT22;5946;51.770;8.548;2022-08-19T06:04:48;17.20;99.90
11778;DHT22;5946;51.770;8.548;2022-08-19T06:07:14;18.30;99.90
11778;DHT22;5946;51.770;8.548;2022-08-19T06:09:41;17.50;99.90
11778;DHT22;5946;51.770;8.548;2022-08-19T06:12:07;17.70;99.90
11778;DHT22;5946;51.770;8.548;2022-08-19T06:14:34;17.70;99.90
11778;DHT22;5946;51.770;8.548;2022-08-19T06:17:00;17.70;99.90
11778;DHT22;5946;51.770;8.548;2022-08-19T06:19:28;17.80;99.90
11778;DHT22;5946;51.770;8.548;2022-08-19T06:21:55;17.80;99.90
11778;DHT22;5946;51.770;8.548;2022-08-19T06:24:25;17.90;99.90
11778;DHT22;5946;51.770;8.548;2022-08-19T06:26:53;17.90;99.90
11778;DHT22;5946;51.770;8.548;2022-08-19T06:29:21;17.90;99.90
11778;DHT22;5946;51.770;8.548;2022-08-19T06:31:51;18.00;99.90
11778;DHT22;5946;51.770;8.548;2022-08-19T06:34:18;18.00;99.90
11778;DHT22;5946;51.770;8.548;2022-08-19T06:36:47;18.10;99.90
11778;DHT22;5946;51.770;8.548;2022-08-19T06:39:16;18.10;99.90
11778;DHT22;5946;51.770;8.548;2022-08-19T06:41:46;18.10;99.90
11778;DHT22;5946;51.770;8.548;2022-08-19T06:44:13;18.10;99.90
11778;DHT22;5946;51.770;8.548;2022-08-19T06:46:40;18.10;99.90
11778;DHT22;5946;51.770;8.548;2022-08-19T06:49:06;18.10;99.90
11778;DHT22;5946;51.770;8.548;2022-08-19T06:51:34;18.30;99.90
11778;DHT22;5946;51.770;8.548;2022-08-19T06:53:59;18.30;99.90
11778;DHT22;5946;51.770;8.548;2022-08-19T06:56:28;18.50;99.90
11778;DHT22;5946;51.770;8.548;2022-08-19T06:59:03;18.60;99.90
11778;DHT22;5946;51.770;8.548;2022-08-19T07:01:33;18.70;99.90
11778;DHT22;5946;51.770;8.548;2022-08-19T07:03:59;18.80;99.90
11778;DHT22;5946;51.770;8.548;2022-08-19T07:06:27;18.90;99.90
11778;DHT22;5946;51.770;8.548;2022-08-19T07:08:53;19.00;99.90
11778;DHT22;5946;51.770;8.548;2022-08-19T07:11:18;19.10;99.90
11778;DHT22;5946;51.770;8.548;2022-08-19T07:13:44;19.20;99.90
11778;DHT22;5946;51.770;8.548;2022-08-19T07:16:16;19.20;99.90
11778;DHT22;5946;51.770;8.548;2022-08-19T07:18:42;19.30;99.90
11778;DHT22;5946;51.770;8.548;2022-08-19T07:21:22;19.40;99.90
11778;DHT22;5946;51.770;8.548;2022-08-19T07:23:50;19.50;99.90
11778;DHT22;5946;51.770;8.548;2022-08-19T07:26:23;19.70;99.90
11778;DHT22;5946;51.770;8.548;2022-08-19T07:28:49;19.60;99.90
11778;DHT22;5946;51.770;8.548;2022-08-19T07:31:18;19.60;99.90
11778;DHT22;5946;51.770;8.548;2022-08-19T07:33:45;19.80;99.90
11778;DHT22;5946;51.770;8.548;2022-08-19T07:36:13;20.10;99.90
11778;DHT22;5946;51.770;8.548;2022-08-19T07:38:41;20.40;99.90
11778;DHT22;5946;51.770;8.548;2022-08-19T07:41:10;20.50;99.90
11778;DHT22;5946;51.770;8.548;2022-08-19T07:43:37;20.50;99.90
11778;DHT22;5946;51.770;8.548;2022-08-19T07:46:02;20.50;99.90
11778;DHT22;5946;51.770;8.548;2022-08-19T07:48:28;20.50;99.90
11778;DHT22;5946;51.770;8.548;2022-08-19T07:50:56;20.60;99.90
11778;DHT22;5946;51.770;8.548;2022-08-19T07:53:23;20.60;99.90
11778;DHT22;5946;51.770;8.548;2022-08-19T07:55:49;20.70;99.90
11778;DHT22;5946;51.770;8.548;2022-08-19T07:58:18;20.70;99.90
11778;DHT22;5946;51.770;8.548;2022-08-19T08:00:46;20.90;99.90
11778;DHT22;5946;51.770;8.548;2022-08-19T08:03:14;21.10;99.90
11778;DHT22;5946;51.770;8.548;2022-08-19T08:05:41;21.50;99.90
11778;DHT22;5946;51.770;8.548;2022-08-19T08:08:25;21.60;99.90
11778;DHT22;5946;51.770;8.548;2022-08-19T08:11:26;21.80;99.90
11778;DHT22;5946;51.770;8.548;2022-08-19T08:13:52;21.70;99.90
11778;DHT22;5946;51.770;8.548;2022-08-19T08:16:17;21.90;99.90
11778;DHT22;5946;51.770;8.548;2022-08-19T08:18:43;22.30;99.90
11778;DHT22;5946;51.770;8.548;2022-08-19T08:21:09;22.50;99.90
11778;DHT22;5946;51.770;8.548;2022-08-19T08:23:35;22.70;99.90
11778;DHT22;5946;51.770;8.548;2022-08-19T08:26:01;23.10;99.90
11778;DHT22;5946;51.770;8.548;2022-08-19T08:28:27;23.40;99.90
11778;DHT22;5946;51.770;8.548;2022-08-19T08:30:53;23.70;99.90
11778;DHT22;5946;51.770;8.548;2022-08-19T08:33:22;23.80;99.90
11778;DHT22;5946;51.770;8.548;2022-08-19T08:35:48;24.00;99.90
11778;DHT22;5946;51.770;8.548;2022-08-19T08:38:15;24.10;99.90
11778;DHT22;5946;51.770;8.548;2022-08-19T08:40:49;24.50;99.90
11778;DHT22;5946;51.770;8.548;2022-08-19T08:43:30;24.70;99.90
11778;DHT22;5946;51.770;8.548;2022-08-19T08:46:10;25.00;99.90
11778;DHT22;5946;51.770;8.548;2022-08-19T08:48:54;24.90;99.90
11778;DHT22;5946;51.770;8.548;2022-08-19T08:51:38;24.70;99.90
11778;DHT22;5946;51.770;8.548;2022-08-19T08:54:07;24.30;99.90
11778;DHT22;5946;51.770;8.548;2022-08-19T08:56:33;24.00;99.90
11778;DHT22;5946;51.770;8.548;2022-08-19T08:59:10;23.60;99.90
11778;DHT22;5946;51.770;8.548;2022-08-19T09:01:38;23.40;99.90
11778;DHT22;5946;51.770;8.548;2022-08-19T09:04:05;23.40;99.90
11778;DHT22;5946;51.770;8.548;2022-08-19T09:09:26;23.40;99.90
11778;DHT22;5946;51.770;8.548;2022-08-19T09:14:57;23.40;99.90
11778;DHT22;5946;51.770;8.548;2022-08-19T09:17:28;23.70;99.90
11778;DHT22;5946;51.770;8.548;2022-08-19T09:20:03;24.30;99.90
11778;DHT22;5946;51.770;8.548;2022-08-19T15:06:57;35.40;56.90
11778;DHT22;5946;51.770;8.548;2022-08-19T15:09:23;35.80;55.30
11778;DHT22;5946;51.770;8.548;2022-08-19T15:11:48;36.70;54.20
11778;DHT22;5946;51.770;8.548;2022-08-19T15:14:15;37.50;52.60
11778;DHT22;5946;51.770;8.548;2022-08-19T15:16:42;38.70;52.10
11778;DHT22;5946;51.770;8.548;2022-08-19T15:19:08;39.20;49.80
11778;DHT22;5946;51.770;8.548;2022-08-19T15:21:34;39.50;49.20
11778;DHT22;5946;51.770;8.548;2022-08-19T15:24:01;39.20;48.80
11778;DHT22;5946;51.770;8.548;2022-08-19T15:26:28;37.60;51.90
11778;DHT22;5946;51.770;8.548;2022-08-19T15:28:58;36.90;52.10
11778;DHT22;5946;51.770;8.548;2022-08-19T15:31:25;36.50;51.80
11778;DHT22;5946;51.770;8.548;2022-08-19T15:33:52;35.70;52.90
11778;DHT22;5946;51.770;8.548;2022-08-19T15:36:18;35.10;54.10
11778;DHT22;5946;51.770;8.548;2022-08-19T15:38:43;35.30;53.50
11778;DHT22;5946;51.770;8.548;2022-08-19T15:41:35;35.50;53.90
11778;DHT22;5946;51.770;8.548;2022-08-19T15:44:07;34.80;54.00
11778;DHT22;5946;51.770;8.548;2022-08-19T15:46:37;33.80;55.30
11778;DHT22;5946;51.770;8.548;2022-08-19T15:49:04;33.30;57.30
11778;DHT22;5946;51.770;8.548;2022-08-19T15:51:32;33.40;56.50
11778;DHT22;5946;51.770;8.548;2022-08-19T16:01:57;30.20;61.40
11778;DHT22;5946;51.770;8.548;2022-08-19T16:04:41;29.70;64.10
11778;DHT22;5946;51.770;8.548;2022-08-19T16:07:25;29.30;65.10
11778;DHT22;5946;51.770;8.548;2022-08-19T16:09:51;29.20;66.40
11778;DHT22;5946;51.770;8.548;2022-08-19T16:12:17;28.90;67.00
11778;DHT22;5946;51.770;8.548;2022-08-19T16:14:43;28.60;67.70
11778;DHT22;5946;51.770;8.548;2022-08-19T16:17:08;28.40;69.20
11778;DHT22;5946;51.770;8.548;2022-08-19T16:22:03;28.10;69.00
11778;DHT22;5946;51.770;8.548;2022-08-19T16:24:30;28.70;91.10
11778;DHT22;5946;51.770;8.548;2022-08-19T16:26:58;28.20;93.70
11778;DHT22;5946;51.770;8.548;2022-08-19T17:01:10;31.80;60.10
11778;DHT22;5946;51.770;8.548;2022-08-19T17:03:36;31.30;62.40
11778;DHT22;5946;51.770;8.548;2022-08-19T17:06:10;31.50;62.60
11778;DHT22;5946;51.770;8.548;2022-08-19T17:08:35;31.30;63.00
11778;DHT22;5946;51.770;8.548;2022-08-19T17:23:14;27.90;69.60
11778;DHT22;5946;51.770;8.548;2022-08-19T17:25:39;27.50;71.50
11778;DHT22;5946;51.770;8.548;2022-08-19T17:28:17;27.20;72.20
11778;DHT22;5946;51.770;8.548;2022-08-19T17:30:43;27.00;73.40
11778;DHT22;5946;51.770;8.548;2022-08-19T17:33:09;26.60;74.10
11778;DHT22;5946;51.770;8.548;2022-08-19T17:35:36;26.40;75.30
11778;DHT22;5946;51.770;8.548;2022-08-19T17:38:05;26.20;75.70
11778;DHT22;5946;51.770;8.548;2022-08-19T17:40:32;26.00;76.20
11778;DHT22;5946;51.770;8.548;2022-08-19T17:42:58;25.90;76.90
11778;DHT22;5946;51.770;8.548;2022-08-19T17:45:24;25.80;77.50
11778;DHT22;5946;51.770;8.548;2022-08-19T17:47:50;25.60;78.70
11778;DHT22;5946;51.770;8.548;2022-08-19T17:50:16;25.60;79.50
11778;DHT22;5946;51.770;8.548;2022-08-19T17:52:42;25.40;80.10
11778;DHT22;5946;51.770;8.548;2022-08-19T17:55:08;25.30;81.40
11778;DHT22;5946;51.770;8.548;2022-08-19T17:57:35;25.20;81.60
11778;DHT22;5946;51.770;8.548;2022-08-19T18:00:03;25.10;82.60
11778;DHT22;5946;51.770;8.548;2022-08-19T18:02:29;24.90;83.30
11778;DHT22;5946;51.770;8.548;2022-08-19T18:04:54;24.80;84.10
11778;DHT22;5946;51.770;8.548;2022-08-19T18:07:20;24.70;85.30
11778;DHT22;5946;51.770;8.548;2022-08-19T18:09:47;24.50;86.20
11778;DHT22;5946;51.770;8.548;2022-08-19T18:12:21;24.50;86.80
11778;DHT22;5946;51.770;8.548;2022-08-19T18:14:47;24.50;87.30
11778;DHT22;5946;51.770;8.548;2022-08-19T18:17:14;24.40;88.10
11778;DHT22;5946;51.770;8.548;2022-08-19T18:19:42;24.30;88.50
11778;DHT22;5946;51.770;8.548;2022-08-19T18:22:09;24.20;88.90
11778;DHT22;5946;51.770;8.548;2022-08-19T18:24:38;24.10;89.90
11778;DHT22;5946;51.770;8.548;2022-08-19T18:27:04;24.00;90.20
11778;DHT22;5946;51.770;8.548;2022-08-19T18:29:31;23.90;90.60
11778;DHT22;5946;51.770;8.548;2022-08-19T18:31:58;23.70;91.00
11778;DHT22;5946;51.770;8.548;2022-08-19T18:34:23;23.70;91.50
11778;DHT22;5946;51.770;8.548;2022-08-19T18:36:49;23.50;91.90
11778;DHT22;5946;51.770;8.548;2022-08-19T18:39:14;23.50;92.30
11778;DHT22;5946;51.770;8.548;2022-08-19T18:41:58;23.30;92.60
11778;DHT22;5946;51.770;8.548;2022-08-19T18:44:42;23.20;93.50
11778;DHT22;5946;51.770;8.548;2022-08-19T18:47:26;23.10;93.90
11778;DHT22;5946;51.770;8.548;2022-08-19T18:50:10;23.00;94.50
11778;DHT22;5946;51.770;8.548;2022-08-19T18:52:38;22.80;95.20
11778;DHT22;5946;51.770;8.548;2022-08-19T18:55:05;22.70;95.60
11778;DHT22;5946;51.770;8.548;2022-08-19T18:57:32;22.70;95.90
11778;DHT22;5946;51.770;8.548;2022-08-19T18:59:58;22.50;96.60
11778;DHT22;5946;51.770;8.548;2022-08-19T19:02:23;22.40;97.80
11778;DHT22;5946;51.770;8.548;2022-08-19T19:04:49;22.20;98.50
11778;DHT22;5946;51.770;8.548;2022-08-19T19:07:16;22.00;99.60
11778;DHT22;5946;51.770;8.548;2022-08-19T19:09:43;21.90;99.90
11778;DHT22;5946;51.770;8.548;2022-08-19T19:12:10;22.00;99.90
11778;DHT22;5946;51.770;8.548;2022-08-19T19:14:37;22.10;99.90
11778;DHT22;5946;51.770;8.548;2022-08-19T19:19:32;22.00;99.90
11778;DHT22;5946;51.770;8.548;2022-08-19T19:22:00;21.80;99.90
11778;DHT22;5946;51.770;8.548;2022-08-19T19:24:29;21.70;99.90
11778;DHT22;5946;51.770;8.548;2022-08-19T19:26:58;21.60;99.90
11778;DHT22;5946;51.770;8.548;2022-08-19T19:29:25;21.50;99.90
11778;DHT22;5946;51.770;8.548;2022-08-19T19:31:51;21.50;99.90
11778;DHT22;5946;51.770;8.548;2022-08-19T19:34:18;21.50;99.90
11778;DHT22;5946;51.770;8.548;2022-08-19T19:36:46;21.50;99.90
11778;DHT22;5946;51.770;8.548;2022-08-19T19:39:11;21.50;99.90
11778;DHT22;5946;51.770;8.548;2022-08-19T19:41:37;21.50;99.90
11778;DHT22;5946;51.770;8.548;2022-08-19T19:44:04;21.60;99.90
11778;DHT22;5946;51.770;8.548;2022-08-19T19:46:31;21.60;99.90
11778;DHT22;5946;51.770;8.548;2022-08-19T19:48:57;21.50;99.90
11778;DHT22;5946;51.770;8.548;2022-08-19T19:51:24;21.60;99.90
11778;DHT22;5946;51.770;8.548;2022-08-19T19:53:49;21.50;99.90
11778;DHT22;5946;51.770;8.548;2022-08-19T19:56:15;21.50;99.90
11778;DHT22;5946;51.770;8.548;2022-08-19T19:58:41;21.50;99.90
11778;DHT22;5946;51.770;8.548;2022-08-19T20:01:08;21.50;99.90
11778;DHT22;5946;51.770;8.548;2022-08-19T20:03:38;21.50;99.90
11778;DHT22;5946;51.770;8.548;2022-08-19T20:06:04;21.50;99.90
11778;DHT22;5946;51.770;8.548;2022-08-19T20:08:29;21.40;99.90
11778;DHT22;5946;51.770;8.548;2022-08-19T20:11:29;21.40;99.90
11778;DHT22;5946;51.770;8.548;2022-08-19T20:13:56;21.30;99.90
11778;DHT22;5946;51.770;8.548;2022-08-19T20:16:22;21.40;99.90
11778;DHT22;5946;51.770;8.548;2022-08-19T20:18:50;21.40;99.90
11778;DHT22;5946;51.770;8.548;2022-08-19T20:21:16;21.30;99.90
11778;DHT22;5946;51.770;8.548;2022-08-19T20:23:42;21.30;99.90
11778;DHT22;5946;51.770;8.548;2022-08-19T20:26:08;21.40;99.90
11778;DHT22;5946;51.770;8.548;2022-08-19T20:28:34;21.60;99.90
11778;DHT22;5946;51.770;8.548;2022-08-19T20:30:59;21.70;99.90
11778;DHT22;5946;51.770;8.548;2022-08-19T20:33:25;21.80;99.90
11778;DHT22;5946;51.770;8.548;2022-08-19T20:35:50;21.80;99.90
11778;DHT22;5946;51.770;8.548;2022-08-19T20:38:16;21.80;99.90
11778;DHT22;5946;51.770;8.548;2022-08-19T20:40:42;21.70;99.90
11778;DHT22;5946;51.770;8.548;2022-08-19T20:43:09;21.70;99.90
11778;DHT22;5946;51.770;8.548;2022-08-19T20:45:35;21.70;99.90
11778;DHT22;5946;51.770;8.548;2022-08-19T20:48:02;21.60;99.90
11778;DHT22;5946;51.770;8.548;2022-08-19T20:50:29;21.70;99.90
11778;DHT22;5946;51.770;8.548;2022-08-19T20:52:55;21.70;99.90
11778;DHT22;5946;51.770;8.548;2022-08-19T20:55:21;21.70;99.90
11778;DHT22;5946;51.770;8.548;2022-08-19T20:57:46;21.80;99.90
11778;DHT22;5946;51.770;8.548;2022-08-19T21:00:12;21.90;99.90
11778;DHT22;5946;51.770;8.548;2022-08-19T21:02:39;21.80;99.90
11778;DHT22;5946;51.770;8.548;2022-08-19T21:05:05;21.70;99.90
11778;DHT22;5946;51.770;8.548;2022-08-19T21:07:32;21.70;99.90
11778;DHT22;5946;51.770;8.548;2022-08-19T21:09:57;21.60;99.90
11778;DHT22;5946;51.770;8.548;2022-08-19T21:12:23;21.50;99.90
11778;DHT22;5946;51.770;8.548;2022-08-19T21:14:50;21.40;99.90
11778;DHT22;5946;51.770;8.548;2022-08-19T21:17:16;21.30;99.90
11778;DHT22;5946;51.770;8.548;2022-08-19T21:19:41;21.20;99.90
11778;DHT22;5946;51.770;8.548;2022-08-19T21:22:07;21.20;99.90
11778;DHT22;5946;51.770;8.548;2022-08-19T21:24:33;21.10;99.90
11778;DHT22;5946;51.770;8.548;2022-08-19T21:26:58;21.20;99.90
11778;DHT22;5946;51.770;8.548;2022-08-19T21:29:24;21.10;99.90
11778;DHT22;5946;51.770;8.548;2022-08-19T21:36:43;21.00;99.90
11778;DHT22;5946;51.770;8.548;2022-08-19T21:39:09;21.00;99.90
11778;DHT22;5946;51.770;8.548;2022-08-19T21:41:34;21.00;99.90
11778;DHT22;5946;51.770;8.548;2022-08-19T21:44:01;21.00;99.90
11778;DHT22;5946;51.770;8.548;2022-08-19T21:46:27;20.90;99.90
11778;DHT22;5946;51.770;8.548;2022-08-19T21:48:53;20.90;99.90
11778;DHT22;5946;51.770;8.548;2022-08-19T21:51:19;20.80;99.90
11778;DHT22;5946;51.770;8.548;2022-08-19T21:53:44;20.80;99.90
11778;DHT22;5946;51.770;8.548;2022-08-19T21:56:10;20.80;99.90
11778;DHT22;5946;51.770;8.548;2022-08-19T21:58:36;20.80;99.90
11778;DHT22;5946;51.770;8.548;2022-08-19T22:01:03;20.80;99.90
11778;DHT22;5946;51.770;8.548;2022-08-19T22:03:35;20.80;99.90
11778;DHT22;5946;51.770;8.548;2022-08-19T22:06:01;20.80;99.90
11778;DHT22;5946;51.770;8.548;2022-08-19T22:08:27;20.80;99.90
11778;DHT22;5946;51.770;8.548;2022-08-19T22:10:53;20.80;99.90
11778;DHT22;5946;51.770;8.548;2022-08-19T22:13:19;20.80;99.90
11778;DHT22;5946;51.770;8.548;2022-08-19T22:15:45;20.80;99.90
11778;DHT22;5946;51.770;8.548;2022-08-19T22:18:11;20.80;99.90
11778;DHT22;5946;51.770;8.548;2022-08-19T22:20:38;20.80;99.90
11778;DHT22;5946;51.770;8.548;2022-08-19T22:23:05;20.80;99.90
11778;DHT22;5946;51.770;8.548;2022-08-19T22:25:37;20.70;99.90
11778;DHT22;5946;51.770;8.548;2022-08-19T22:28:09;20.70;99.90
11778;DHT22;5946;51.770;8.548;2022-08-19T22:30:35;20.80;99.90
11778;DHT22;5946;51.770;8.548;2022-08-19T22:33:04;20.70;99.90
11778;DHT22;5946;51.770;8.548;2022-08-19T22:35:34;20.70;99.90
11778;DHT22;5946;51.770;8.548;2022-08-19T22:38:01;20.80;99.90
11778;DHT22;5946;51.770;8.548;2022-08-19T22:40:31;20.80;99.90